sensor_id;sensor_type;location;lat;lon;timestamp;pressure;altitude;pressure_sealevel;temperature;humidity
75996;BME280;64681;49.738;9.004;2023-03-14T00:01:50;97624.69;;;10.36;78.50
75996;BME280;64681;49.738;9.004;2023-03-14T00:04:16;97616.38;;;10.37;78.25
75996;BME280;64681;49.738;9.004;2023-03-14T00:06:42;97613.34;;;10.42;78.35
75996;BME280;64681;49.738;9.004;2023-03-14T00:09:07;97617.97;;;10.49;76.81
75996;BME280;64681;49.738;9.004;2023-03-14T00:11:33;97626.78;;;10.57;77.21
75996;BME280;64681;49.738;9.004;2023-03-14T00:13:59;97637.44;;;10.57;77.52
75996;BME280;64681;49.738;9.004;2023-03-14T00:16:26;97633.66;;;10.61;76.98
75996;BME280;64681;49.738;9.004;2023-03-14T00:18:51;97630.97;;;10.58;77.14
75996;BME280;64681;49.738;9.004;2023-03-14T00:21:17;97641.69;;;10.61;76.19
75996;BME280;64681;49.738;9.004;2023-03-14T00:23:44;97640.75;;;10.39;77.72
75996;BME280;64681;49.738;9.004;2023-03-14T00:26:12;97645.97;;;10.77;76.27
75996;BME280;64681;49.738;9.004;2023-03-14T00:28:39;97635.84;;;10.45;76.47
75996;BME280;64681;49.738;9.004;2023-03-14T00:31:07;97633.59;;;10.47;77.16
75996;BME280;64681;49.738;9.004;2023-03-14T00:33:34;97639.94;;;10.32;77.21
75996;BME280;64681;49.738;9.004;2023-03-14T00:36:03;97642.16;;;10.26;77.83
75996;BME280;64681;49.738;9.004;2023-03-14T00:38:31;97648.75;;;10.39;78.23
75996;BME280;64681;49.738;9.004;2023-03-14T00:40:57;97656.66;;;10.28;77.73
75996;BME280;64681;49.738;9.004;2023-03-14T00:43:23;97649.78;;;10.27;76.46
75996;BME280;64681;49.738;9.004;2023-03-14T00:45:52;97645.44;;;10.53;77.32
75996;BME280;64681;49.738;9.004;2023-03-14T00:48:20;97642.75;;;10.50;76.71
75996;BME280;64681;49.738;9.004;2023-03-14T00:50:46;97639.66;;;10.44;76.77
75996;BME280;64681;49.738;9.004;2023-03-14T00:53:12;97646.19;;;10.54;76.08
75996;BME280;64681;49.738;9.004;2023-03-14T00:55:40;97645.13;;;10.69;75.16
75996;BME280;64681;49.738;9.004;2023-03-14T00:58:08;97636.41;;;10.76;75.91
75996;BME280;64681;49.738;9.004;2023-03-14T01:00:34;97627.41;;;10.39;76.21
75996;BME280;64681;49.738;9.004;2023-03-14T01:03:00;97642.22;;;10.33;76.76
75996;BME280;64681;49.738;9.004;2023-03-14T01:05:26;97627.94;;;10.59;75.91
75996;BME280;64681;49.738;9.004;2023-03-14T01:07:52;97644.28;;;10.51;75.55
75996;BME280;64681;49.738;9.004;2023-03-14T01:10:18;97637.41;;;10.50;76.08
75996;BME280;64681;49.738;9.004;2023-03-14T01:12:43;97642.03;;;10.56;76.00
75996;BME280;64681;49.738;9.004;2023-03-14T01:15:09;97640.81;;;10.50;75.00
75996;BME280;64681;49.738;9.004;2023-03-14T01:17:35;97652.00;;;10.70;75.33
75996;BME280;64681;49.738;9.004;2023-03-14T01:20:04;97651.84;;;10.45;75.62
75996;BME280;64681;49.738;9.004;2023-03-14T01:22:30;97644.78;;;10.71;75.07
75996;BME280;64681;49.738;9.004;2023-03-14T01:24:56;97634.03;;;10.56;74.98
75996;BME280;64681;49.738;9.004;2023-03-14T01:27:21;97634.34;;;10.51;75.50
75996;BME280;64681;49.738;9.004;2023-03-14T01:29:47;97634.75;;;10.50;75.45
75996;BME280;64681;49.738;9.004;2023-03-14T01:32:13;97637.47;;;10.60;75.56
75996;BME280;64681;49.738;9.004;2023-03-14T01:34:39;97615.78;;;10.69;74.40
75996;BME280;64681;49.738;9.004;2023-03-14T01:37:04;97606.38;;;10.93;74.63
75996;BME280;64681;49.738;9.004;2023-03-14T01:39:30;97607.66;;;10.51;74.36
75996;BME280;64681;49.738;9.004;2023-03-14T01:41:56;97605.50;;;10.71;73.87
75996;BME280;64681;49.738;9.004;2023-03-14T01:44:22;97593.22;;;10.59;74.97
75996;BME280;64681;49.738;9.004;2023-03-14T01:46:47;97572.69;;;10.67;74.93
75996;BME280;64681;49.738;9.004;2023-03-14T01:49:20;97583.31;;;10.56;75.49
75996;BME280;64681;49.738;9.004;2023-03-14T01:54:27;97597.78;;;10.52;75.40
75996;BME280;64681;49.738;9.004;2023-03-14T01:59:42;97581.97;;;11.02;73.33
75996;BME280;64681;49.738;9.004;2023-03-14T02:02:12;97579.31;;;10.99;72.86
75996;BME280;64681;49.738;9.004;2023-03-14T02:04:38;97587.75;;;11.19;72.71
75996;BME280;64681;49.738;9.004;2023-03-14T02:09:59;97545.19;;;10.59;75.44
75996;BME280;64681;49.738;9.004;2023-03-14T02:12:26;97529.25;;;10.77;73.53
75996;BME280;64681;49.738;9.004;2023-03-14T02:14:52;97523.22;;;10.99;72.87
75996;BME280;64681;49.738;9.004;2023-03-14T02:17:19;97512.50;;;10.84;73.05
75996;BME280;64681;49.738;9.004;2023-03-14T02:22:25;97511.38;;;10.85;73.53
75996;BME280;64681;49.738;9.004;2023-03-14T02:27:22;97505.22;;;10.77;74.09
75996;BME280;64681;49.738;9.004;2023-03-14T02:29:57;97504.81;;;10.61;74.09
75996;BME280;64681;49.738;9.004;2023-03-14T02:32:26;97513.97;;;10.67;74.26
75996;BME280;64681;49.738;9.004;2023-03-14T02:34:56;97517.44;;;10.82;73.37
75996;BME280;64681;49.738;9.004;2023-03-14T02:37:32;97517.88;;;10.95;73.14
75996;BME280;64681;49.738;9.004;2023-03-14T02:40:01;97515.09;;;10.66;73.98
75996;BME280;64681;49.738;9.004;2023-03-14T02:42:26;97505.97;;;10.71;73.63
75996;BME280;64681;49.738;9.004;2023-03-14T02:44:59;97524.34;;;10.98;72.78
75996;BME280;64681;49.738;9.004;2023-03-14T02:47:29;97516.22;;;10.61;74.07
75996;BME280;64681;49.738;9.004;2023-03-14T02:50:05;97505.66;;;10.90;72.65
75996;BME280;64681;49.738;9.004;2023-03-14T02:52:32;97497.31;;;11.03;73.44
75996;BME280;64681;49.738;9.004;2023-03-14T02:54:57;97498.03;;;10.89;73.05
75996;BME280;64681;49.738;9.004;2023-03-14T02:57:23;97486.56;;;10.92;72.17
75996;BME280;64681;49.738;9.004;2023-03-14T02:59:48;97506.78;;;10.93;74.04
75996;BME280;64681;49.738;9.004;2023-03-14T03:02:14;97492.69;;;10.92;72.42
75996;BME280;64681;49.738;9.004;2023-03-14T03:04:39;97487.72;;;10.80;72.97
75996;BME280;64681;49.738;9.004;2023-03-14T03:07:05;97501.47;;;10.97;72.69
75996;BME280;64681;49.738;9.004;2023-03-14T03:09:31;97500.34;;;11.01;72.36
75996;BME280;64681;49.738;9.004;2023-03-14T03:11:56;97480.50;;;11.02;72.00
75996;BME280;64681;49.738;9.004;2023-03-14T03:14:22;97476.22;;;10.65;73.03
75996;BME280;64681;49.738;9.004;2023-03-14T03:16:47;97478.16;;;10.75;72.75
75996;BME280;64681;49.738;9.004;2023-03-14T03:19:13;97470.94;;;10.90;71.87
75996;BME280;64681;49.738;9.004;2023-03-14T03:21:39;97467.06;;;10.70;72.94
75996;BME280;64681;49.738;9.004;2023-03-14T03:24:05;97474.72;;;10.79;73.12
75996;BME280;64681;49.738;9.004;2023-03-14T03:26:34;97473.59;;;10.80;72.03
75996;BME280;64681;49.738;9.004;2023-03-14T03:29:00;97480.06;;;10.79;71.88
75996;BME280;64681;49.738;9.004;2023-03-14T03:31:25;97472.00;;;10.64;73.28
75996;BME280;64681;49.738;9.004;2023-03-14T03:33:51;97464.00;;;10.60;72.95
75996;BME280;64681;49.738;9.004;2023-03-14T03:36:21;97461.69;;;10.55;72.53
75996;BME280;64681;49.738;9.004;2023-03-14T03:38:47;97454.50;;;10.74;72.36
75996;BME280;64681;49.738;9.004;2023-03-14T03:41:12;97446.84;;;10.58;72.60
75996;BME280;64681;49.738;9.004;2023-03-14T03:43:38;97441.09;;;10.59;72.60
75996;BME280;64681;49.738;9.004;2023-03-14T03:46:04;97441.13;;;10.63;72.59
75996;BME280;64681;49.738;9.004;2023-03-14T03:48:30;97443.78;;;10.63;72.12
75996;BME280;64681;49.738;9.004;2023-03-14T03:50:56;97431.22;;;10.67;72.14
75996;BME280;64681;49.738;9.004;2023-03-14T03:53:21;97438.84;;;10.65;72.72
75996;BME280;64681;49.738;9.004;2023-03-14T03:55:47;97437.66;;;10.48;73.26
75996;BME280;64681;49.738;9.004;2023-03-14T03:58:12;97428.19;;;10.72;72.23
75996;BME280;64681;49.738;9.004;2023-03-14T04:00:38;97421.69;;;10.63;72.45
75996;BME280;64681;49.738;9.004;2023-03-14T04:03:04;97423.91;;;10.42;72.70
75996;BME280;64681;49.738;9.004;2023-03-14T04:05:30;97437.19;;;10.32;72.60
75996;BME280;64681;49.738;9.004;2023-03-14T04:07:56;97435.66;;;10.30;73.67
75996;BME280;64681;49.738;9.004;2023-03-14T04:10:21;97436.53;;;10.56;72.11
75996;BME280;64681;49.738;9.004;2023-03-14T04:12:47;97431.06;;;10.35;72.19
75996;BME280;64681;49.738;9.004;2023-03-14T04:15:13;97448.66;;;10.43;72.17
75996;BME280;64681;49.738;9.004;2023-03-14T04:17:38;97433.06;;;10.49;71.77
75996;BME280;64681;49.738;9.004;2023-03-14T04:20:04;97431.56;;;10.55;71.31
75996;BME280;64681;49.738;9.004;2023-03-14T04:22:30;97444.53;;;10.53;71.43
75996;BME280;64681;49.738;9.004;2023-03-14T04:24:55;97439.97;;;10.57;71.60
75996;BME280;64681;49.738;9.004;2023-03-14T04:27:21;97453.69;;;10.52;71.78
75996;BME280;64681;49.738;9.004;2023-03-14T04:29:46;97453.31;;;10.60;70.57
75996;BME280;64681;49.738;9.004;2023-03-14T04:32:12;97443.34;;;10.50;71.24
75996;BME280;64681;49.738;9.004;2023-03-14T04:34:37;97434.94;;;10.37;71.09
75996;BME280;64681;49.738;9.004;2023-03-14T04:37:03;97446.38;;;10.41;71.92
75996;BME280;64681;49.738;9.004;2023-03-14T04:39:29;97435.44;;;10.68;69.97
75996;BME280;64681;49.738;9.004;2023-03-14T04:41:54;97444.22;;;10.87;69.71
75996;BME280;64681;49.738;9.004;2023-03-14T04:44:20;97434.66;;;10.68;70.72
75996;BME280;64681;49.738;9.004;2023-03-14T04:46:45;97443.44;;;10.65;70.46
75996;BME280;64681;49.738;9.004;2023-03-14T04:49:11;97452.97;;;10.73;70.56
75996;BME280;64681;49.738;9.004;2023-03-14T04:51:36;97442.31;;;10.80;71.14
75996;BME280;64681;49.738;9.004;2023-03-14T04:54:02;97425.13;;;10.77;70.51
75996;BME280;64681;49.738;9.004;2023-03-14T04:56:27;97419.78;;;10.74;70.59
75996;BME280;64681;49.738;9.004;2023-03-14T04:58:53;97405.69;;;10.70;70.65
75996;BME280;64681;49.738;9.004;2023-03-14T05:01:18;97416.78;;;11.01;69.02
75996;BME280;64681;49.738;9.004;2023-03-14T05:03:44;97405.31;;;10.86;70.17
75996;BME280;64681;49.738;9.004;2023-03-14T05:06:09;97397.31;;;10.93;69.08
75996;BME280;64681;49.738;9.004;2023-03-14T05:08:35;97390.06;;;10.90;69.23
75996;BME280;64681;49.738;9.004;2023-03-14T05:11:01;97390.81;;;10.69;70.73
75996;BME280;64681;49.738;9.004;2023-03-14T05:13:26;97387.41;;;10.79;69.83
75996;BME280;64681;49.738;9.004;2023-03-14T05:15:52;97381.28;;;10.75;69.52
75996;BME280;64681;49.738;9.004;2023-03-14T05:18:18;97395.72;;;10.56;70.75
75996;BME280;64681;49.738;9.004;2023-03-14T05:20:43;97390.03;;;10.57;70.47
75996;BME280;64681;49.738;9.004;2023-03-14T05:23:09;97378.97;;;10.66;70.42
75996;BME280;64681;49.738;9.004;2023-03-14T05:25:35;97378.59;;;10.64;70.25
75996;BME280;64681;49.738;9.004;2023-03-14T05:28:00;97381.69;;;10.95;69.02
75996;BME280;64681;49.738;9.004;2023-03-14T05:30:26;97388.53;;;10.82;68.80
75996;BME280;64681;49.738;9.004;2023-03-14T05:32:53;97386.97;;;10.59;69.72
75996;BME280;64681;49.738;9.004;2023-03-14T05:35:19;97369.47;;;10.72;69.13
75996;BME280;64681;49.738;9.004;2023-03-14T05:37:45;97375.94;;;10.82;69.15
75996;BME280;64681;49.738;9.004;2023-03-14T05:40:10;97360.31;;;10.81;68.49
75996;BME280;64681;49.738;9.004;2023-03-14T05:42:36;97377.06;;;10.70;68.99
75996;BME280;64681;49.738;9.004;2023-03-14T05:45:02;97367.94;;;10.89;68.94
75996;BME280;64681;49.738;9.004;2023-03-14T05:47:28;97378.63;;;10.97;68.01
75996;BME280;64681;49.738;9.004;2023-03-14T05:49:53;97391.59;;;10.84;68.40
75996;BME280;64681;49.738;9.004;2023-03-14T05:52:19;97377.09;;;10.92;68.08
75996;BME280;64681;49.738;9.004;2023-03-14T05:54:44;97390.06;;;10.79;69.06
75996;BME280;64681;49.738;9.004;2023-03-14T05:57:10;97379.75;;;10.88;68.88
75996;BME280;64681;49.738;9.004;2023-03-14T06:00:01;97385.47;;;10.83;68.46
75996;BME280;64681;49.738;9.004;2023-03-14T06:02:52;97384.72;;;10.83;68.48
75996;BME280;64681;49.738;9.004;2023-03-14T06:05:43;97370.59;;;10.89;68.07
75996;BME280;64681;49.738;9.004;2023-03-14T06:08:34;97378.97;;;10.63;68.55
75996;BME280;64681;49.738;9.004;2023-03-14T06:11:25;97376.34;;;10.77;68.48
75996;BME280;64681;49.738;9.004;2023-03-14T06:14:16;97389.28;;;10.82;69.04
75996;BME280;64681;49.738;9.004;2023-03-14T06:16:42;97369.06;;;10.74;68.34
75996;BME280;64681;49.738;9.004;2023-03-14T06:19:07;97372.50;;;10.74;69.25
75996;BME280;64681;49.738;9.004;2023-03-14T06:21:33;97378.63;;;10.89;67.89
75996;BME280;64681;49.738;9.004;2023-03-14T06:23:58;97375.94;;;10.97;67.68
75996;BME280;64681;49.738;9.004;2023-03-14T06:26:24;97366.03;;;11.08;66.73
75996;BME280;64681;49.738;9.004;2023-03-14T06:28:50;97366.78;;;11.45;65.99
75996;BME280;64681;49.738;9.004;2023-03-14T06:31:16;97355.72;;;11.28;65.90
75996;BME280;64681;49.738;9.004;2023-03-14T06:33:42;97349.63;;;11.24;66.56
75996;BME280;64681;49.738;9.004;2023-03-14T06:36:08;97354.19;;;11.34;65.81
75996;BME280;64681;49.738;9.004;2023-03-14T06:38:34;97360.28;;;11.28;66.76
75996;BME280;64681;49.738;9.004;2023-03-14T06:41:07;97352.25;;;11.46;65.94
75996;BME280;64681;49.738;9.004;2023-03-14T06:43:33;97353.44;;;11.16;66.22
75996;BME280;64681;49.738;9.004;2023-03-14T06:45:58;97349.25;;;11.33;65.82
75996;BME280;64681;49.738;9.004;2023-03-14T06:48:24;97359.94;;;11.29;66.67
75996;BME280;64681;49.738;9.004;2023-03-14T06:50:49;97357.63;;;11.35;66.30
75996;BME280;64681;49.738;9.004;2023-03-14T06:53:15;97350.00;;;11.37;66.80
75996;BME280;64681;49.738;9.004;2023-03-14T06:55:41;97345.00;;;11.50;66.94
75996;BME280;64681;49.738;9.004;2023-03-14T06:58:06;97336.63;;;11.33;67.59
75996;BME280;64681;49.738;9.004;2023-03-14T07:00:33;97345.81;;;10.89;67.82
75996;BME280;64681;49.738;9.004;2023-03-14T07:02:59;97346.97;;;11.06;68.37
75996;BME280;64681;49.738;9.004;2023-03-14T07:05:25;97342.41;;;11.03;69.74
75996;BME280;64681;49.738;9.004;2023-03-14T07:07:51;97343.16;;;10.85;70.66
75996;BME280;64681;49.738;9.004;2023-03-14T07:10:16;97354.22;;;11.16;69.57
75996;BME280;64681;49.738;9.004;2023-03-14T07:12:42;97344.28;;;11.13;70.26
75996;BME280;64681;49.738;9.004;2023-03-14T07:15:08;97343.91;;;10.93;70.99
75996;BME280;64681;49.738;9.004;2023-03-14T07:17:34;97347.72;;;10.92;71.88
75996;BME280;64681;49.738;9.004;2023-03-14T07:19:59;97348.06;;;10.40;73.33
75996;BME280;64681;49.738;9.004;2023-03-14T07:22:26;97347.66;;;10.38;74.72
75996;BME280;64681;49.738;9.004;2023-03-14T07:24:52;97357.63;;;10.70;72.65
75996;BME280;64681;49.738;9.004;2023-03-14T07:27:17;97349.63;;;10.73;70.18
75996;BME280;64681;49.738;9.004;2023-03-14T07:29:43;97359.56;;;11.02;71.23
75996;BME280;64681;49.738;9.004;2023-03-14T07:32:08;97355.34;;;11.26;69.29
75996;BME280;64681;49.738;9.004;2023-03-14T07:34:34;97358.03;;;11.01;70.32
75996;BME280;64681;49.738;9.004;2023-03-14T07:37:00;97358.03;;;10.90;70.57
75996;BME280;64681;49.738;9.004;2023-03-14T07:39:25;97348.88;;;11.05;69.19
75996;BME280;64681;49.738;9.004;2023-03-14T07:41:51;97353.09;;;10.99;70.58
75996;BME280;64681;49.738;9.004;2023-03-14T07:44:16;97355.75;;;11.10;69.82
75996;BME280;64681;49.738;9.004;2023-03-14T07:46:42;97359.94;;;11.15;68.25
75996;BME280;64681;49.738;9.004;2023-03-14T07:49:07;97361.44;;;11.27;68.72
75996;BME280;64681;49.738;9.004;2023-03-14T07:51:33;97359.94;;;11.11;68.85
75996;BME280;64681;49.738;9.004;2023-03-14T07:53:59;97351.91;;;10.79;69.45
75996;BME280;64681;49.738;9.004;2023-03-14T07:56:24;97367.56;;;11.34;67.94
75996;BME280;64681;49.738;9.004;2023-03-14T07:58:50;97367.13;;;11.57;67.57
75996;BME280;64681;49.738;9.004;2023-03-14T08:01:15;97373.94;;;11.87;65.86
75996;BME280;64681;49.738;9.004;2023-03-14T08:03:41;97366.00;;;11.40;68.31
75996;BME280;64681;49.738;9.004;2023-03-14T08:06:06;97376.69;;;11.55;67.44
75996;BME280;64681;49.738;9.004;2023-03-14T08:08:32;97377.09;;;11.32;67.37
75996;BME280;64681;49.738;9.004;2023-03-14T08:11:05;97385.88;;;11.36;67.83
75996;BME280;64681;49.738;9.004;2023-03-14T08:13:34;97355.25;;;11.66;66.19
75996;BME280;64681;49.738;9.004;2023-03-14T08:15:59;97367.91;;;11.51;66.42
75996;BME280;64681;49.738;9.004;2023-03-14T08:18:25;97379.00;;;11.28;67.81
75996;BME280;64681;49.738;9.004;2023-03-14T08:20:50;97378.97;;;11.64;65.95
75996;BME280;64681;49.738;9.004;2023-03-14T08:23:16;97377.06;;;11.50;65.88
75996;BME280;64681;49.738;9.004;2023-03-14T08:25:41;97373.56;;;11.82;65.11
75996;BME280;64681;49.738;9.004;2023-03-14T08:28:07;97373.25;;;11.58;66.03
75996;BME280;64681;49.738;9.004;2023-03-14T08:30:33;97377.47;;;11.52;66.85
75996;BME280;64681;49.738;9.004;2023-03-14T08:32:58;97375.06;;;12.01;64.79
75996;BME280;64681;49.738;9.004;2023-03-14T08:35:25;97368.94;;;11.93;64.91
75996;BME280;64681;49.738;9.004;2023-03-14T08:37:51;97380.16;;;11.34;67.34
75996;BME280;64681;49.738;9.004;2023-03-14T08:40:18;97379.34;;;11.55;67.28
75996;BME280;64681;49.738;9.004;2023-03-14T08:42:44;97369.00;;;11.71;66.76
75996;BME280;64681;49.738;9.004;2023-03-14T08:45:15;97375.41;;;12.03;65.33
75996;BME280;64681;49.738;9.004;2023-03-14T08:47:43;97373.06;;;12.16;65.55
75996;BME280;64681;49.738;9.004;2023-03-14T08:50:09;97363.69;;;11.61;66.20
75996;BME280;64681;49.738;9.004;2023-03-14T08:52:35;97370.16;;;11.70;67.26
75996;BME280;64681;49.738;9.004;2023-03-14T08:55:03;97371.56;;;12.11;65.04
75996;BME280;64681;49.738;9.004;2023-03-14T08:57:29;97376.41;;;12.38;65.06
75996;BME280;64681;49.738;9.004;2023-03-14T08:59:56;97371.44;;;12.40;63.83
75996;BME280;64681;49.738;9.004;2023-03-14T09:02:23;97364.53;;;12.46;65.40
75996;BME280;64681;49.738;9.004;2023-03-14T09:04:52;97383.94;;;12.58;64.15
75996;BME280;64681;49.738;9.004;2023-03-14T09:07:19;97378.78;;;12.25;65.30
75996;BME280;64681;49.738;9.004;2023-03-14T09:09:45;97387.22;;;12.20;65.99
75996;BME280;64681;49.738;9.004;2023-03-14T09:12:11;97386.47;;;12.09;66.88
75996;BME280;64681;49.738;9.004;2023-03-14T09:14:36;97384.97;;;12.04;66.33
75996;BME280;64681;49.738;9.004;2023-03-14T09:17:03;97386.38;;;12.30;66.13
75996;BME280;64681;49.738;9.004;2023-03-14T09:19:29;97383.25;;;12.46;65.72
75996;BME280;64681;49.738;9.004;2023-03-14T09:21:55;97392.75;;;12.58;65.21
75996;BME280;64681;49.738;9.004;2023-03-14T09:24:21;97391.28;;;12.50;66.19
75996;BME280;64681;49.738;9.004;2023-03-14T09:26:46;97392.09;;;12.40;65.36
75996;BME280;64681;49.738;9.004;2023-03-14T09:29:12;97397.75;;;12.53;66.11
75996;BME280;64681;49.738;9.004;2023-03-14T09:31:38;97396.44;;;12.82;65.11
75996;BME280;64681;49.738;9.004;2023-03-14T09:34:03;97404.66;;;13.10;64.13
75996;BME280;64681;49.738;9.004;2023-03-14T09:36:30;97383.97;;;13.14;63.68
75996;BME280;64681;49.738;9.004;2023-03-14T09:38:55;97402.88;;;12.92;64.04
75996;BME280;64681;49.738;9.004;2023-03-14T09:44:04;97405.66;;;13.27;63.71
75996;BME280;64681;49.738;9.004;2023-03-14T09:46:35;97389.78;;;13.02;63.83
75996;BME280;64681;49.738;9.004;2023-03-14T09:49:02;97388.19;;;13.57;62.93
75996;BME280;64681;49.738;9.004;2023-03-14T09:51:27;97400.34;;;13.69;61.94
75996;BME280;64681;49.738;9.004;2023-03-14T09:53:54;97405.44;;;13.59;62.69
75996;BME280;64681;49.738;9.004;2023-03-14T09:56:23;97383.38;;;12.88;63.76
75996;BME280;64681;49.738;9.004;2023-03-14T09:59:00;97397.72;;;13.16;63.52
75996;BME280;64681;49.738;9.004;2023-03-14T10:01:28;97387.56;;;13.42;62.57
75996;BME280;64681;49.738;9.004;2023-03-14T10:03:57;97392.66;;;13.25;63.50
75996;BME280;64681;49.738;9.004;2023-03-14T10:06:26;97385.56;;;13.04;63.81
75996;BME280;64681;49.738;9.004;2023-03-14T10:08:54;97386.63;;;12.58;66.59
75996;BME280;64681;49.738;9.004;2023-03-14T10:11:19;97397.19;;;12.05;68.50
75996;BME280;64681;49.738;9.004;2023-03-14T10:14:09;97387.59;;;12.22;69.11
75996;BME280;64681;49.738;9.004;2023-03-14T10:16:41;97385.81;;;12.68;66.81
75996;BME280;64681;49.738;9.004;2023-03-14T10:19:11;97401.63;;;12.41;67.53
75996;BME280;64681;49.738;9.004;2023-03-14T10:21:39;97396.19;;;12.59;67.69
75996;BME280;64681;49.738;9.004;2023-03-14T10:26:40;97400.97;;;12.22;69.18
75996;BME280;64681;49.738;9.004;2023-03-14T10:29:15;97407.94;;;12.76;68.52
75996;BME280;64681;49.738;9.004;2023-03-14T10:31:54;97407.16;;;12.82;66.97
75996;BME280;64681;49.738;9.004;2023-03-14T10:34:26;97410.78;;;12.47;69.89
75996;BME280;64681;49.738;9.004;2023-03-14T10:36:59;97407.66;;;12.63;69.00
75996;BME280;64681;49.738;9.004;2023-03-14T10:39:47;97416.59;;;12.31;70.25
75996;BME280;64681;49.738;9.004;2023-03-14T10:44:55;97407.13;;;12.08;72.44
75996;BME280;64681;49.738;9.004;2023-03-14T10:47:24;97409.44;;;11.99;72.79
75996;BME280;64681;49.738;9.004;2023-03-14T10:49:51;97411.00;;;11.82;73.78
75996;BME280;64681;49.738;9.004;2023-03-14T10:52:22;97406.38;;;11.93;73.51
75996;BME280;64681;49.738;9.004;2023-03-14T10:55:00;97412.19;;;11.63;74.48
75996;BME280;64681;49.738;9.004;2023-03-14T10:57:27;97413.34;;;11.62;74.19
75996;BME280;64681;49.738;9.004;2023-03-14T10:59:55;97400.38;;;11.49;75.69
75996;BME280;64681;49.738;9.004;2023-03-14T11:02:54;97408.72;;;11.66;75.46
75996;BME280;64681;49.738;9.004;2023-03-14T11:16:21;97402.25;;;11.60;76.53
75996;BME280;64681;49.738;9.004;2023-03-14T11:32:44;97411.44;;;11.26;76.83
75996;BME280;64681;49.738;9.004;2023-03-14T11:38:32;97405.72;;;10.88;79.26
75996;BME280;64681;49.738;9.004;2023-03-14T11:40:59;97406.09;;;11.01;78.58
75996;BME280;64681;49.738;9.004;2023-03-14T11:43:39;97418.72;;;11.26;77.95
75996;BME280;64681;49.738;9.004;2023-03-14T11:46:32;97408.38;;;10.99;78.07
75996;BME280;64681;49.738;9.004;2023-03-14T11:51:46;97406.84;;;11.01;79.39
75996;BME280;64681;49.738;9.004;2023-03-14T11:54:46;97407.63;;;10.91;79.54
75996;BME280;64681;49.738;9.004;2023-03-14T11:57:17;97416.41;;;11.24;78.10
75996;BME280;64681;49.738;9.004;2023-03-14T12:10:54;97427.44;;;10.72;79.17
75996;BME280;64681;49.738;9.004;2023-03-14T12:13:22;97438.47;;;10.74;78.52
75996;BME280;64681;49.738;9.004;2023-03-14T12:15:56;97438.09;;;10.68;79.25
75996;BME280;64681;49.738;9.004;2023-03-14T12:20:58;97449.56;;;10.87;79.32
75996;BME280;64681;49.738;9.004;2023-03-14T12:23:27;97459.47;;;10.75;79.75
75996;BME280;64681;49.738;9.004;2023-03-14T12:28:38;97481.47;;;10.40;80.94
75996;BME280;64681;49.738;9.004;2023-03-14T12:42:36;97553.84;;;10.38;79.95
75996;BME280;64681;49.738;9.004;2023-03-14T12:47:53;97590.31;;;10.20;79.99
75996;BME280;64681;49.738;9.004;2023-03-14T12:50:34;97609.09;;;9.89;79.85
75996;BME280;64681;49.738;9.004;2023-03-14T12:53:20;97627.00;;;10.34;78.54
75996;BME280;64681;49.738;9.004;2023-03-14T12:58:37;97633.94;;;10.42;78.05
75996;BME280;64681;49.738;9.004;2023-03-14T13:01:06;97635.53;;;10.05;78.87
75996;BME280;64681;49.738;9.004;2023-03-14T13:04:18;97660.69;;;9.66;77.55
75996;BME280;64681;49.738;9.004;2023-03-14T13:12:02;97705.81;;;9.18;76.22
75996;BME280;64681;49.738;9.004;2023-03-14T13:14:31;97703.06;;;9.11;76.82
75996;BME280;64681;49.738;9.004;2023-03-14T13:17:00;97708.28;;;9.03;78.01
75996;BME280;64681;49.738;9.004;2023-03-14T13:19:31;97706.81;;;9.06;76.51
75996;BME280;64681;49.738;9.004;2023-03-14T13:22:24;97710.81;;;9.23;74.46
75996;BME280;64681;49.738;9.004;2023-03-14T13:24:59;97719.53;;;9.50;74.43
75996;BME280;64681;49.738;9.004;2023-03-14T13:27:25;97723.28;;;9.46;73.42
75996;BME280;64681;49.738;9.004;2023-03-14T13:29:52;97724.06;;;9.84;74.57
75996;BME280;64681;49.738;9.004;2023-03-14T13:32:30;97723.56;;;10.09;71.64
75996;BME280;64681;49.738;9.004;2023-03-14T13:34:57;97731.56;;;10.09;71.30
75996;BME280;64681;49.738;9.004;2023-03-14T13:37:24;97751.97;;;10.32;70.08
75996;BME280;64681;49.738;9.004;2023-03-14T13:39:55;97762.28;;;9.95;70.95
75996;BME280;64681;49.738;9.004;2023-03-14T13:42:25;97785.59;;;9.68;71.35
75996;BME280;64681;49.738;9.004;2023-03-14T13:44:52;97802.34;;;9.11;73.87
75996;BME280;64681;49.738;9.004;2023-03-14T13:47:21;97816.66;;;9.57;73.80
75996;BME280;64681;49.738;9.004;2023-03-14T13:49:49;97816.69;;;9.60;72.67
75996;BME280;64681;49.738;9.004;2023-03-14T13:52:30;97838.75;;;9.88;70.99
75996;BME280;64681;49.738;9.004;2023-03-14T13:54:59;97846.66;;;10.11;69.60
75996;BME280;64681;49.738;9.004;2023-03-14T13:57:25;97841.75;;;10.51;67.91
75996;BME280;64681;49.738;9.004;2023-03-14T14:00:06;97850.78;;;10.76;68.20
75996;BME280;64681;49.738;9.004;2023-03-14T14:02:38;97862.78;;;10.56;68.18
75996;BME280;64681;49.738;9.004;2023-03-14T14:05:04;97870.00;;;10.52;66.90
75996;BME280;64681;49.738;9.004;2023-03-14T14:07:30;97884.81;;;9.85;68.65
75996;BME280;64681;49.738;9.004;2023-03-14T14:09:59;97910.13;;;9.71;69.54
75996;BME280;64681;49.738;9.004;2023-03-14T14:15:10;97933.44;;;8.81;69.73
75996;BME280;64681;49.738;9.004;2023-03-14T14:17:41;97925.28;;;8.94;69.34
75996;BME280;64681;49.738;9.004;2023-03-14T14:22:48;97955.84;;;9.23;68.41
75996;BME280;64681;49.738;9.004;2023-03-14T14:25:15;97950.63;;;9.54;67.40
75996;BME280;64681;49.738;9.004;2023-03-14T14:27:43;97968.72;;;8.98;66.73
75996;BME280;64681;49.738;9.004;2023-03-14T14:32:43;97982.06;;;8.59;68.92
75996;BME280;64681;49.738;9.004;2023-03-14T14:35:31;97974.06;;;8.78;68.33
75996;BME280;64681;49.738;9.004;2023-03-14T14:37:58;97988.41;;;8.93;68.96
75996;BME280;64681;49.738;9.004;2023-03-14T14:40:26;97997.59;;;8.76;69.31
75996;BME280;64681;49.738;9.004;2023-03-14T14:42:53;98005.38;;;8.65;68.62
75996;BME280;64681;49.738;9.004;2023-03-14T14:45:22;98007.91;;;8.42;70.13